sensor_id;sensor_type;location;lat;lon;timestamp;P1;durP1;ratioP1;P2;durP2;ratioP2
74679;SDS011;63211;48.548;2.704;2022-10-04T00:01:03;4.68;;;2.35;;
74679;SDS011;63211;48.548;2.704;2022-10-04T00:03:35;4.53;;;2.38;;
74679;SDS011;63211;48.548;2.704;2022-10-04T00:06:10;5.35;;;2.33;;
74679;SDS011;63211;48.548;2.704;2022-10-04T00:08:40;3.58;;;2.03;;
74679;SDS011;63211;48.548;2.704;2022-10-04T00:11:14;5.05;;;2.47;;
74679;SDS011;63211;48.548;2.704;2022-10-04T00:13:46;5.25;;;1.98;;
74679;SDS011;63211;48.548;2.704;2022-10-04T00:16:25;4.00;;;1.90;;
74679;SDS011;63211;48.548;2.704;2022-10-04T00:19:03;4.15;;;2.10;;
74679;SDS011;63211;48.548;2.704;2022-10-04T00:22:08;3.45;;;2.10;;
74679;SDS011;63211;48.548;2.704;2022-10-04T00:31:11;3.65;;;1.80;;
74679;SDS011;63211;48.548;2.704;2022-10-04T00:33:44;3.95;;;2.13;;
74679;SDS011;63211;48.548;2.704;2022-10-04T00:39:23;3.20;;;1.85;;
74679;SDS011;63211;48.548;2.704;2022-10-04T00:45:10;3.97;;;1.95;;
74679;SDS011;63211;48.548;2.704;2022-10-04T00:48:02;3.58;;;1.77;;
74679;SDS011;63211;48.548;2.704;2022-10-04T00:50:38;3.25;;;1.80;;
74679;SDS011;63211;48.548;2.704;2022-10-04T00:53:12;3.60;;;1.65;;
74679;SDS011;63211;48.548;2.704;2022-10-04T00:55:45;4.60;;;2.00;;
74679;SDS011;63211;48.548;2.704;2022-10-04T00:58:16;3.33;;;2.05;;
74679;SDS011;63211;48.548;2.704;2022-10-04T01:00:46;3.65;;;1.88;;
74679;SDS011;63211;48.548;2.704;2022-10-04T01:03:16;2.72;;;1.63;;
74679;SDS011;63211;48.548;2.704;2022-10-04T01:05:48;3.42;;;1.67;;
74679;SDS011;63211;48.548;2.704;2022-10-04T01:08:21;3.50;;;1.98;;
74679;SDS011;63211;48.548;2.704;2022-10-04T01:10:53;4.10;;;1.60;;
74679;SDS011;63211;48.548;2.704;2022-10-04T01:13:24;3.33;;;1.58;;
74679;SDS011;63211;48.548;2.704;2022-10-04T01:15:56;3.22;;;1.85;;
74679;SDS011;63211;48.548;2.704;2022-10-04T01:18:29;3.28;;;1.63;;
74679;SDS011;63211;48.548;2.704;2022-10-04T01:21:02;2.08;;;1.13;;
74679;SDS011;63211;48.548;2.704;2022-10-04T01:23:36;2.78;;;1.40;;
74679;SDS011;63211;48.548;2.704;2022-10-04T01:26:06;1.85;;;1.20;;
74679;SDS011;63211;48.548;2.704;2022-10-04T01:29:06;3.45;;;1.50;;
74679;SDS011;63211;48.548;2.704;2022-10-04T01:31:36;2.33;;;1.20;;
74679;SDS011;63211;48.548;2.704;2022-10-04T01:34:04;2.33;;;1.40;;
74679;SDS011;63211;48.548;2.704;2022-10-04T01:36:32;2.40;;;1.38;;
74679;SDS011;63211;48.548;2.704;2022-10-04T01:39:00;2.20;;;1.30;;
74679;SDS011;63211;48.548;2.704;2022-10-04T01:41:27;2.40;;;1.40;;
74679;SDS011;63211;48.548;2.704;2022-10-04T01:44:03;3.03;;;1.65;;
74679;SDS011;63211;48.548;2.704;2022-10-04T01:46:35;2.75;;;1.40;;
74679;SDS011;63211;48.548;2.704;2022-10-04T01:49:05;2.78;;;1.30;;
74679;SDS011;63211;48.548;2.704;2022-10-04T01:51:37;3.00;;;1.27;;
74679;SDS011;63211;48.548;2.704;2022-10-04T01:54:09;2.58;;;1.27;;
74679;SDS011;63211;48.548;2.704;2022-10-04T01:56:39;1.85;;;1.15;;
74679;SDS011;63211;48.548;2.704;2022-10-04T01:59:14;2.80;;;1.42;;
74679;SDS011;63211;48.548;2.704;2022-10-04T02:01:48;3.03;;;1.50;;
74679;SDS011;63211;48.548;2.704;2022-10-04T02:04:20;2.28;;;1.23;;
74679;SDS011;63211;48.548;2.704;2022-10-04T02:06:52;2.85;;;1.20;;
74679;SDS011;63211;48.548;2.704;2022-10-04T02:09:22;1.90;;;1.08;;
74679;SDS011;63211;48.548;2.704;2022-10-04T02:11:51;2.30;;;1.15;;
74679;SDS011;63211;48.548;2.704;2022-10-04T02:14:21;2.25;;;1.25;;
74679;SDS011;63211;48.548;2.704;2022-10-04T02:16:50;2.00;;;1.05;;
74679;SDS011;63211;48.548;2.704;2022-10-04T02:19:18;2.70;;;1.27;;
74679;SDS011;63211;48.548;2.704;2022-10-04T02:21:47;1.70;;;1.20;;
74679;SDS011;63211;48.548;2.704;2022-10-04T02:24:15;3.75;;;1.40;;
74679;SDS011;63211;48.548;2.704;2022-10-04T02:26:47;2.30;;;1.38;;
74679;SDS011;63211;48.548;2.704;2022-10-04T02:29:14;1.60;;;1.10;;
74679;SDS011;63211;48.548;2.704;2022-10-04T02:31:43;2.90;;;1.27;;
74679;SDS011;63211;48.548;2.704;2022-10-04T02:34:28;2.63;;;1.27;;
74679;SDS011;63211;48.548;2.704;2022-10-04T02:36:55;2.38;;;1.20;;
74679;SDS011;63211;48.548;2.704;2022-10-04T02:39:23;1.75;;;1.00;;
74679;SDS011;63211;48.548;2.704;2022-10-04T02:41:53;2.42;;;1.27;;
74679;SDS011;63211;48.548;2.704;2022-10-04T02:44:24;2.33;;;1.25;;
74679;SDS011;63211;48.548;2.704;2022-10-04T02:46:57;1.67;;;1.00;;
74679;SDS011;63211;48.548;2.704;2022-10-04T02:49:33;2.38;;;1.60;;
74679;SDS011;63211;48.548;2.704;2022-10-04T02:52:04;3.00;;;1.58;;
74679;SDS011;63211;48.548;2.704;2022-10-04T02:54:35;2.38;;;1.30;;
74679;SDS011;63211;48.548;2.704;2022-10-04T02:57:10;1.92;;;1.10;;
74679;SDS011;63211;48.548;2.704;2022-10-04T02:59:40;1.48;;;0.90;;
74679;SDS011;63211;48.548;2.704;2022-10-04T03:02:18;1.88;;;1.00;;
74679;SDS011;63211;48.548;2.704;2022-10-04T03:04:47;3.53;;;1.48;;
74679;SDS011;63211;48.548;2.704;2022-10-04T03:07:16;1.80;;;1.00;;
74679;SDS011;63211;48.548;2.704;2022-10-04T03:09:44;2.15;;;1.10;;
74679;SDS011;63211;48.548;2.704;2022-10-04T03:12:11;2.17;;;1.10;;
74679;SDS011;63211;48.548;2.704;2022-10-04T03:14:39;2.33;;;1.08;;
74679;SDS011;63211;48.548;2.704;2022-10-04T03:17:06;1.70;;;0.88;;
74679;SDS011;63211;48.548;2.704;2022-10-04T03:19:35;1.40;;;0.88;;
74679;SDS011;63211;48.548;2.704;2022-10-04T03:22:03;4.88;;;1.15;;
74679;SDS011;63211;48.548;2.704;2022-10-04T03:24:35;1.60;;;1.15;;
74679;SDS011;63211;48.548;2.704;2022-10-04T03:27:05;2.53;;;1.17;;
74679;SDS011;63211;48.548;2.704;2022-10-04T03:29:34;1.95;;;1.05;;
74679;SDS011;63211;48.548;2.704;2022-10-04T03:32:08;2.17;;;0.85;;
74679;SDS011;63211;48.548;2.704;2022-10-04T03:34:40;2.53;;;1.20;;
74679;SDS011;63211;48.548;2.704;2022-10-04T03:37:12;1.58;;;1.15;;
74679;SDS011;63211;48.548;2.704;2022-10-04T03:39:41;2.50;;;1.13;;
74679;SDS011;63211;48.548;2.704;2022-10-04T03:42:11;1.58;;;1.10;;
74679;SDS011;63211;48.548;2.704;2022-10-04T03:44:41;2.13;;;1.20;;
74679;SDS011;63211;48.548;2.704;2022-10-04T03:47:10;5.55;;;1.25;;
74679;SDS011;63211;48.548;2.704;2022-10-04T03:49:40;3.08;;;1.20;;
74679;SDS011;63211;48.548;2.704;2022-10-04T03:52:12;3.17;;;1.20;;
74679;SDS011;63211;48.548;2.704;2022-10-04T03:54:43;2.20;;;1.30;;
74679;SDS011;63211;48.548;2.704;2022-10-04T03:57:11;1.70;;;1.00;;
74679;SDS011;63211;48.548;2.704;2022-10-04T03:59:38;2.72;;;1.17;;
74679;SDS011;63211;48.548;2.704;2022-10-04T04:02:07;3.03;;;0.90;;
74679;SDS011;63211;48.548;2.704;2022-10-04T04:04:44;1.92;;;1.10;;
74679;SDS011;63211;48.548;2.704;2022-10-04T04:07:18;2.67;;;1.15;;
74679;SDS011;63211;48.548;2.704;2022-10-04T04:09:50;1.58;;;0.88;;
74679;SDS011;63211;48.548;2.704;2022-10-04T04:12:23;1.70;;;1.05;;
74679;SDS011;63211;48.548;2.704;2022-10-04T04:14:58;2.20;;;1.05;;
74679;SDS011;63211;48.548;2.704;2022-10-04T04:17:30;2.33;;;1.02;;
74679;SDS011;63211;48.548;2.704;2022-10-04T04:20:03;1.98;;;0.93;;
74679;SDS011;63211;48.548;2.704;2022-10-04T04:22:38;2.45;;;0.82;;
74679;SDS011;63211;48.548;2.704;2022-10-04T04:25:11;1.75;;;0.80;;
74679;SDS011;63211;48.548;2.704;2022-10-04T04:27:41;1.60;;;0.85;;
74679;SDS011;63211;48.548;2.704;2022-10-04T04:30:12;1.52;;;0.82;;
74679;SDS011;63211;48.548;2.704;2022-10-04T04:32:43;3.33;;;0.95;;
74679;SDS011;63211;48.548;2.704;2022-10-04T04:35:21;1.80;;;1.08;;
74679;SDS011;63211;48.548;2.704;2022-10-04T04:38:09;1.55;;;0.80;;
74679;SDS011;63211;48.548;2.704;2022-10-04T04:40:40;1.70;;;1.00;;
74679;SDS011;63211;48.548;2.704;2022-10-04T04:43:08;1.42;;;0.73;;
74679;SDS011;63211;48.548;2.704;2022-10-04T04:45:39;2.17;;;0.90;;
74679;SDS011;63211;48.548;2.704;2022-10-04T04:48:06;1.60;;;1.00;;
74679;SDS011;63211;48.548;2.704;2022-10-04T04:50:35;1.55;;;0.95;;
74679;SDS011;63211;48.548;2.704;2022-10-04T04:53:05;1.95;;;1.00;;
74679;SDS011;63211;48.548;2.704;2022-10-04T04:55:38;1.40;;;0.75;;
74679;SDS011;63211;48.548;2.704;2022-10-04T04:58:06;1.85;;;1.00;;
74679;SDS011;63211;48.548;2.704;2022-10-04T05:00:35;1.65;;;0.73;;
74679;SDS011;63211;48.548;2.704;2022-10-04T05:03:05;1.20;;;0.90;;
74679;SDS011;63211;48.548;2.704;2022-10-04T05:05:33;1.55;;;0.82;;
74679;SDS011;63211;48.548;2.704;2022-10-04T05:08:10;1.13;;;0.80;;
74679;SDS011;63211;48.548;2.704;2022-10-04T05:10:40;1.60;;;0.90;;
74679;SDS011;63211;48.548;2.704;2022-10-04T05:13:10;1.60;;;0.85;;
74679;SDS011;63211;48.548;2.704;2022-10-04T05:15:39;2.08;;;1.02;;
74679;SDS011;63211;48.548;2.704;2022-10-04T05:18:12;1.25;;;0.80;;
74679;SDS011;63211;48.548;2.704;2022-10-04T05:20:48;1.25;;;0.70;;
74679;SDS011;63211;48.548;2.704;2022-10-04T05:23:18;1.13;;;0.73;;
74679;SDS011;63211;48.548;2.704;2022-10-04T05:25:45;1.63;;;0.88;;
74679;SDS011;63211;48.548;2.704;2022-10-04T05:28:13;1.02;;;0.70;;
74679;SDS011;63211;48.548;2.704;2022-10-04T05:30:44;1.00;;;0.60;;
74679;SDS011;63211;48.548;2.704;2022-10-04T05:33:19;1.33;;;0.73;;
74679;SDS011;63211;48.548;2.704;2022-10-04T05:35:55;1.15;;;0.85;;
74679;SDS011;63211;48.548;2.704;2022-10-04T05:38:38;1.38;;;0.77;;
74679;SDS011;63211;48.548;2.704;2022-10-04T05:41:12;1.15;;;0.63;;
74679;SDS011;63211;48.548;2.704;2022-10-04T05:43:47;1.00;;;0.70;;
74679;SDS011;63211;48.548;2.704;2022-10-04T05:46:16;1.48;;;0.93;;
74679;SDS011;63211;48.548;2.704;2022-10-04T05:48:48;1.42;;;0.80;;
74679;SDS011;63211;48.548;2.704;2022-10-04T05:51:21;1.55;;;0.77;;
74679;SDS011;63211;48.548;2.704;2022-10-04T05:56:33;2.08;;;0.88;;
74679;SDS011;63211;48.548;2.704;2022-10-04T05:59:18;3.15;;;1.15;;
74679;SDS011;63211;48.548;2.704;2022-10-04T06:01:54;1.42;;;0.70;;
74679;SDS011;63211;48.548;2.704;2022-10-04T06:04:36;2.22;;;0.73;;
74679;SDS011;63211;48.548;2.704;2022-10-04T06:07:14;2.42;;;0.93;;
74679;SDS011;63211;48.548;2.704;2022-10-04T06:15:47;3.90;;;1.10;;
74679;SDS011;63211;48.548;2.704;2022-10-04T06:18:29;2.95;;;0.82;;
74679;SDS011;63211;48.548;2.704;2022-10-04T06:21:18;3.28;;;0.80;;
74679;SDS011;63211;48.548;2.704;2022-10-04T06:23:50;2.88;;;1.02;;
74679;SDS011;63211;48.548;2.704;2022-10-04T06:26:22;1.83;;;1.10;;
74679;SDS011;63211;48.548;2.704;2022-10-04T06:28:55;4.35;;;0.80;;
74679;SDS011;63211;48.548;2.704;2022-10-04T06:37:36;1.40;;;0.80;;
74679;SDS011;63211;48.548;2.704;2022-10-04T06:40:21;4.40;;;1.00;;
74679;SDS011;63211;48.548;2.704;2022-10-04T06:43:09;2.95;;;0.93;;
74679;SDS011;63211;48.548;2.704;2022-10-04T06:45:54;3.25;;;1.00;;
74679;SDS011;63211;48.548;2.704;2022-10-04T06:48:47;1.55;;;0.80;;
74679;SDS011;63211;48.548;2.704;2022-10-04T06:51:33;2.08;;;0.75;;
74679;SDS011;63211;48.548;2.704;2022-10-04T06:54:11;1.70;;;0.90;;
74679;SDS011;63211;48.548;2.704;2022-10-04T06:56:53;1.70;;;0.60;;
74679;SDS011;63211;48.548;2.704;2022-10-04T06:59:40;1.17;;;0.70;;
74679;SDS011;63211;48.548;2.704;2022-10-04T07:02:19;1.98;;;0.77;;
74679;SDS011;63211;48.548;2.704;2022-10-04T07:07:22;2.63;;;0.68;;
74679;SDS011;63211;48.548;2.704;2022-10-04T07:10:00;1.40;;;0.80;;
74679;SDS011;63211;48.548;2.704;2022-10-04T07:12:41;1.45;;;0.90;;
74679;SDS011;63211;48.548;2.704;2022-10-04T07:15:14;2.42;;;1.00;;
74679;SDS011;63211;48.548;2.704;2022-10-04T07:17:45;2.03;;;0.70;;
74679;SDS011;63211;48.548;2.704;2022-10-04T07:20:17;1.73;;;0.88;;
74679;SDS011;63211;48.548;2.704;2022-10-04T07:22:49;5.50;;;1.00;;
74679;SDS011;63211;48.548;2.704;2022-10-04T07:25:23;2.47;;;0.95;;
74679;SDS011;63211;48.548;2.704;2022-10-04T07:27:56;2.20;;;0.98;;
74679;SDS011;63211;48.548;2.704;2022-10-04T07:30:46;1.75;;;0.90;;
74679;SDS011;63211;48.548;2.704;2022-10-04T07:33:19;3.03;;;1.08;;
74679;SDS011;63211;48.548;2.704;2022-10-04T07:35:49;2.08;;;0.80;;
74679;SDS011;63211;48.548;2.704;2022-10-04T07:38:22;1.38;;;0.80;;
74679;SDS011;63211;48.548;2.704;2022-10-04T07:41:00;2.30;;;0.80;;
74679;SDS011;63211;48.548;2.704;2022-10-04T07:43:34;2.78;;;0.90;;
74679;SDS011;63211;48.548;2.704;2022-10-04T07:46:12;1.30;;;0.73;;
74679;SDS011;63211;48.548;2.704;2022-10-04T07:48:45;1.40;;;0.93;;
74679;SDS011;63211;48.548;2.704;2022-10-04T07:51:18;1.92;;;0.95;;
74679;SDS011;63211;48.548;2.704;2022-10-04T07:53:56;1.40;;;0.90;;
74679;SDS011;63211;48.548;2.704;2022-10-04T07:56:29;2.25;;;0.98;;
74679;SDS011;63211;48.548;2.704;2022-10-04T07:59:07;1.60;;;0.90;;
74679;SDS011;63211;48.548;2.704;2022-10-04T08:01:54;1.27;;;0.80;;
74679;SDS011;63211;48.548;2.704;2022-10-04T08:04:33;1.85;;;1.10;;
74679;SDS011;63211;48.548;2.704;2022-10-04T08:07:11;1.73;;;0.70;;
74679;SDS011;63211;48.548;2.704;2022-10-04T08:09:45;1.77;;;0.80;;
74679;SDS011;63211;48.548;2.704;2022-10-04T08:12:26;2.75;;;0.82;;
74679;SDS011;63211;48.548;2.704;2022-10-04T08:15:08;1.73;;;0.65;;
74679;SDS011;63211;48.548;2.704;2022-10-04T08:17:59;1.73;;;0.93;;
74679;SDS011;63211;48.548;2.704;2022-10-04T08:20:33;1.40;;;0.90;;
74679;SDS011;63211;48.548;2.704;2022-10-04T08:23:17;1.80;;;0.82;;
74679;SDS011;63211;48.548;2.704;2022-10-04T08:26:06;1.27;;;0.70;;
74679;SDS011;63211;48.548;2.704;2022-10-04T08:28:46;1.42;;;0.90;;
74679;SDS011;63211;48.548;2.704;2022-10-04T08:31:39;2.30;;;0.90;;
74679;SDS011;63211;48.548;2.704;2022-10-04T08:34:24;1.60;;;0.60;;
74679;SDS011;63211;48.548;2.704;2022-10-04T08:37:07;1.77;;;0.90;;
74679;SDS011;63211;48.548;2.704;2022-10-04T08:39:46;1.83;;;0.90;;
74679;SDS011;63211;48.548;2.704;2022-10-04T08:45:58;1.60;;;0.90;;
74679;SDS011;63211;48.548;2.704;2022-10-04T08:55:13;1.38;;;0.65;;
74679;SDS011;63211;48.548;2.704;2022-10-04T08:58:15;1.67;;;0.82;;
74679;SDS011;63211;48.548;2.704;2022-10-04T09:00:56;2.15;;;1.00;;
74679;SDS011;63211;48.548;2.704;2022-10-04T09:06:41;1.02;;;0.60;;
74679;SDS011;63211;48.548;2.704;2022-10-04T09:09:37;1.42;;;0.77;;
74679;SDS011;63211;48.548;2.704;2022-10-04T09:12:30;1.20;;;0.63;;
74679;SDS011;63211;48.548;2.704;2022-10-04T09:18:20;1.17;;;0.68;;
74679;SDS011;63211;48.548;2.704;2022-10-04T09:20:58;1.38;;;0.80;;
74679;SDS011;63211;48.548;2.704;2022-10-04T09:26:44;1.45;;;0.82;;
74679;SDS011;63211;48.548;2.704;2022-10-04T09:32:21;1.25;;;0.70;;
74679;SDS011;63211;48.548;2.704;2022-10-04T09:35:13;1.05;;;0.70;;
74679;SDS011;63211;48.548;2.704;2022-10-04T09:38:00;1.35;;;0.80;;
74679;SDS011;63211;48.548;2.704;2022-10-04T09:40:53;1.00;;;0.73;;
74679;SDS011;63211;48.548;2.704;2022-10-04T09:43:41;2.28;;;1.05;;
74679;SDS011;63211;48.548;2.704;2022-10-04T09:46:29;2.33;;;0.68;;
74679;SDS011;63211;48.548;2.704;2022-10-04T09:49:16;1.33;;;0.77;;
74679;SDS011;63211;48.548;2.704;2022-10-04T09:52:00;1.52;;;1.00;;
74679;SDS011;63211;48.548;2.704;2022-10-04T09:57:39;1.08;;;0.75;;
74679;SDS011;63211;48.548;2.704;2022-10-04T10:00:18;1.95;;;1.08;;
74679;SDS011;63211;48.548;2.704;2022-10-04T10:02:57;1.70;;;0.90;;
74679;SDS011;63211;48.548;2.704;2022-10-04T10:05:47;1.80;;;0.98;;
74679;SDS011;63211;48.548;2.704;2022-10-04T10:08:30;2.13;;;1.05;;
74679;SDS011;63211;48.548;2.704;2022-10-04T10:11:09;1.52;;;1.13;;
74679;SDS011;63211;48.548;2.704;2022-10-04T10:14:15;2.13;;;1.15;;
74679;SDS011;63211;48.548;2.704;2022-10-04T10:17:14;2.17;;;1.20;;
74679;SDS011;63211;48.548;2.704;2022-10-04T10:26:20;1.85;;;1.10;;
74679;SDS011;63211;48.548;2.704;2022-10-04T10:35:26;1.95;;;1.30;;
74679;SDS011;63211;48.548;2.704;2022-10-04T10:38:14;2.65;;;1.50;;
74679;SDS011;63211;48.548;2.704;2022-10-04T10:41:11;3.83;;;1.95;;
74679;SDS011;63211;48.548;2.704;2022-10-04T10:49:56;5.13;;;2.10;;
74679;SDS011;63211;48.548;2.704;2022-10-04T10:52:45;2.88;;;1.63;;
74679;SDS011;63211;48.548;2.704;2022-10-04T10:56:00;3.08;;;1.80;;
74679;SDS011;63211;48.548;2.704;2022-10-04T10:59:03;3.38;;;1.73;;
74679;SDS011;63211;48.548;2.704;2022-10-04T11:05:04;2.13;;;1.33;;
74679;SDS011;63211;48.548;2.704;2022-10-04T11:10:42;3.00;;;1.35;;
74679;SDS011;63211;48.548;2.704;2022-10-04T11:16:39;2.38;;;1.45;;
74679;SDS011;63211;48.548;2.704;2022-10-04T11:28:51;1.67;;;1.00;;
74679;SDS011;63211;48.548;2.704;2022-10-04T11:31:37;3.05;;;1.40;;
74679;SDS011;63211;48.548;2.704;2022-10-04T11:34:26;2.40;;;0.90;;
74679;SDS011;63211;48.548;2.704;2022-10-04T11:37:14;1.40;;;0.80;;
74679;SDS011;63211;48.548;2.704;2022-10-04T11:42:36;1.98;;;1.30;;
74679;SDS011;63211;48.548;2.704;2022-10-04T11:48:21;1.48;;;0.80;;
74679;SDS011;63211;48.548;2.704;2022-10-04T11:51:11;1.38;;;0.85;;
74679;SDS011;63211;48.548;2.704;2022-10-04T11:54:12;2.08;;;1.13;;
74679;SDS011;63211;48.548;2.704;2022-10-04T11:57:06;2.05;;;0.82;;
74679;SDS011;63211;48.548;2.704;2022-10-04T11:59:43;3.08;;;1.13;;
74679;SDS011;63211;48.548;2.704;2022-10-04T12:02:28;1.65;;;0.95;;
74679;SDS011;63211;48.548;2.704;2022-10-04T12:05:22;3.00;;;1.58;;
74679;SDS011;63211;48.548;2.704;2022-10-04T12:08:09;4.35;;;1.15;;
74679;SDS011;63211;48.548;2.704;2022-10-04T12:10:47;3.55;;;1.00;;
74679;SDS011;63211;48.548;2.704;2022-10-04T12:13:43;2.50;;;1.02;;
74679;SDS011;63211;48.548;2.704;2022-10-04T12:16:46;2.92;;;1.02;;
74679;SDS011;63211;48.548;2.704;2022-10-04T12:19:49;5.88;;;1.35;;
74679;SDS011;63211;48.548;2.704;2022-10-04T12:22:32;2.92;;;0.88;;
74679;SDS011;63211;48.548;2.704;2022-10-04T12:28:28;3.72;;;1.27;;
74679;SDS011;63211;48.548;2.704;2022-10-04T12:31:20;3.63;;;1.05;;
74679;SDS011;63211;48.548;2.704;2022-10-04T12:33:55;4.45;;;1.30;;
74679;SDS011;63211;48.548;2.704;2022-10-04T12:36:41;2.78;;;1.08;;
74679;SDS011;63211;48.548;2.704;2022-10-04T12:39:28;5.85;;;0.90;;
74679;SDS011;63211;48.548;2.704;2022-10-04T12:42:07;4.72;;;1.08;;
74679;SDS011;63211;48.548;2.704;2022-10-04T12:44:48;4.00;;;1.10;;
74679;SDS011;63211;48.548;2.704;2022-10-04T12:47:51;6.35;;;1.40;;
74679;SDS011;63211;48.548;2.704;2022-10-04T12:50:30;6.40;;;1.20;;
74679;SDS011;63211;48.548;2.704;2022-10-04T12:53:14;6.63;;;1.23;;
74679;SDS011;63211;48.548;2.704;2022-10-04T12:55:51;2.88;;;1.17;;
74679;SDS011;63211;48.548;2.704;2022-10-04T12:58:27;6.85;;;0.90;;
74679;SDS011;63211;48.548;2.704;2022-10-04T13:01:09;2.40;;;1.00;;
74679;SDS011;63211;48.548;2.704;2022-10-04T13:03:57;4.00;;;0.95;;
74679;SDS011;63211;48.548;2.704;2022-10-04T13:06:35;3.92;;;1.05;;
74679;SDS011;63211;48.548;2.704;2022-10-04T13:09:14;4.63;;;1.20;;
74679;SDS011;63211;48.548;2.704;2022-10-04T13:11:50;2.17;;;1.00;;
74679;SDS011;63211;48.548;2.704;2022-10-04T13:14:32;4.00;;;1.02;;
74679;SDS011;63211;48.548;2.704;2022-10-04T13:17:11;5.75;;;1.40;;
74679;SDS011;63211;48.548;2.704;2022-10-04T13:19:51;2.50;;;0.90;;
74679;SDS011;63211;48.548;2.704;2022-10-04T13:22:29;3.13;;;1.42;;
74679;SDS011;63211;48.548;2.704;2022-10-04T13:25:07;3.78;;;1.25;;
74679;SDS011;63211;48.548;2.704;2022-10-04T13:27:45;3.25;;;0.90;;
74679;SDS011;63211;48.548;2.704;2022-10-04T13:30:19;4.97;;;0.93;;
74679;SDS011;63211;48.548;2.704;2022-10-04T13:32:53;4.60;;;1.27;;
74679;SDS011;63211;48.548;2.704;2022-10-04T13:35:27;3.13;;;1.23;;
74679;SDS011;63211;48.548;2.704;2022-10-04T13:41:15;5.72;;;1.23;;
74679;SDS011;63211;48.548;2.704;2022-10-04T13:44:06;6.57;;;1.13;;
74679;SDS011;63211;48.548;2.704;2022-10-04T13:49:22;4.55;;;1.20;;
74679;SDS011;63211;48.548;2.704;2022-10-04T13:52:00;4.65;;;1.65;;
74679;SDS011;63211;48.548;2.704;2022-10-04T13:54:59;3.88;;;0.85;;
74679;SDS011;63211;48.548;2.704;2022-10-04T13:58:01;4.78;;;1.25;;
74679;SDS011;63211;48.548;2.704;2022-10-04T14:00:47;4.35;;;1.10;;
74679;SDS011;63211;48.548;2.704;2022-10-04T14:03:31;2.33;;;1.30;;
74679;SDS011;63211;48.548;2.704;2022-10-04T14:12:21;2.83;;;0.85;;
74679;SDS011;63211;48.548;2.704;2022-10-04T14:30:53;2.15;;;0.57;;
74679;SDS011;63211;48.548;2.704;2022-10-04T14:33:45;2.35;;;0.60;;
74679;SDS011;63211;48.548;2.704;2022-10-04T14:36:35;1.80;;;0.88;;
74679;SDS011;63211;48.548;2.704;2022-10-04T14:39:28;3.42;;;0.70;;
74679;SDS011;63211;48.548;2.704;2022-10-04T14:42:22;2.35;;;0.68;;
74679;SDS011;63211;48.548;2.704;2022-10-04T14:45:11;1.45;;;0.60;;
74679;SDS011;63211;48.548;2.704;2022-10-04T14:51:16;1.10;;;0.70;;
74679;SDS011;63211;48.548;2.704;2022-10-04T14:53:56;1.42;;;0.57;;
74679;SDS011;63211;48.548;2.704;2022-10-04T14:56:33;3.72;;;0.60;;
74679;SDS011;63211;48.548;2.704;2022-10-04T14:59:15;1.77;;;0.60;;
74679;SDS011;63211;48.548;2.704;2022-10-04T15:02:18;1.15;;;0.50;;
74679;SDS011;63211;48.548;2.704;2022-10-04T15:05:02;1.33;;;0.65;;
74679;SDS011;63211;48.548;2.704;2022-10-04T15:07:58;2.63;;;1.08;;
74679;SDS011;63211;48.548;2.704;2022-10-04T15:10:53;0.88;;;0.45;;
74679;SDS011;63211;48.548;2.704;2022-10-04T15:13:23;1.50;;;0.50;;
74679;SDS011;63211;48.548;2.704;2022-10-04T15:16:02;1.38;;;0.88;;
74679;SDS011;63211;48.548;2.704;2022-10-04T15:18:45;2.60;;;0.60;;
74679;SDS011;63211;48.548;2.704;2022-10-04T15:21:34;1.65;;;0.50;;
74679;SDS011;63211;48.548;2.704;2022-10-04T15:24:19;1.25;;;0.65;;
74679;SDS011;63211;48.548;2.704;2022-10-04T15:30:02;1.25;;;0.70;;
74679;SDS011;63211;48.548;2.704;2022-10-04T15:32:38;3.05;;;0.60;;
74679;SDS011;63211;48.548;2.704;2022-10-04T15:35:18;0.80;;;0.30;;
74679;SDS011;63211;48.548;2.704;2022-10-04T15:37:52;2.33;;;0.50;;
74679;SDS011;63211;48.548;2.704;2022-10-04T15:40:31;1.98;;;0.60;;
74679;SDS011;63211;48.548;2.704;2022-10-04T15:43:09;2.03;;;0.43;;
74679;SDS011;63211;48.548;2.704;2022-10-04T15:49:08;2.70;;;0.68;;
74679;SDS011;63211;48.548;2.704;2022-10-04T15:51:56;1.48;;;0.60;;
74679;SDS011;63211;48.548;2.704;2022-10-04T15:57:38;1.50;;;0.50;;
74679;SDS011;63211;48.548;2.704;2022-10-04T16:00:21;0.63;;;0.20;;
74679;SDS011;63211;48.548;2.704;2022-10-04T16:02:55;1.95;;;0.43;;
74679;SDS011;63211;48.548;2.704;2022-10-04T16:05:34;0.82;;;0.55;;
74679;SDS011;63211;48.548;2.704;2022-10-04T16:14:01;0.75;;;0.40;;
74679;SDS011;63211;48.548;2.704;2022-10-04T16:16:54;0.88;;;0.40;;
74679;SDS011;63211;48.548;2.704;2022-10-04T16:19:43;1.75;;;0.40;;
74679;SDS011;63211;48.548;2.704;2022-10-04T16:22:19;1.67;;;0.50;;
74679;SDS011;63211;48.548;2.704;2022-10-04T16:24:53;4.53;;;0.65;;
74679;SDS011;63211;48.548;2.704;2022-10-04T16:30:22;2.17;;;0.55;;
74679;SDS011;63211;48.548;2.704;2022-10-04T16:33:03;1.52;;;0.47;;
74679;SDS011;63211;48.548;2.704;2022-10-04T16:35:39;1.17;;;0.40;;
74679;SDS011;63211;48.548;2.704;2022-10-04T16:38:19;1.92;;;0.50;;
74679;SDS011;63211;48.548;2.704;2022-10-04T16:40:55;0.88;;;0.30;;
74679;SDS011;63211;48.548;2.704;2022-10-04T16:43:34;2.28;;;0.40;;
74679;SDS011;63211;48.548;2.704;2022-10-04T16:46:05;1.40;;;0.40;;
74679;SDS011;63211;48.548;2.704;2022-10-04T16:48:48;1.05;;;0.47;;
74679;SDS011;63211;48.548;2.704;2022-10-04T16:51:28;0.73;;;0.30;;
74679;SDS011;63211;48.548;2.704;2022-10-04T16:54:13;2.03;;;0.40;;
74679;SDS011;63211;48.548;2.704;2022-10-04T16:57:12;1.10;;;0.50;;
74679;SDS011;63211;48.548;2.704;2022-10-04T16:59:44;1.52;;;0.38;;
74679;SDS011;63211;48.548;2.704;2022-10-04T17:02:21;0.60;;;0.30;;
74679;SDS011;63211;48.548;2.704;2022-10-04T17:05:17;1.73;;;0.47;;
74679;SDS011;63211;48.548;2.704;2022-10-04T17:07:52;0.90;;;0.32;;
74679;SDS011;63211;48.548;2.704;2022-10-04T17:10:32;2.22;;;0.70;;
74679;SDS011;63211;48.548;2.704;2022-10-04T17:13:20;2.45;;;0.60;;
74679;SDS011;63211;48.548;2.704;2022-10-04T17:15:58;3.92;;;0.70;;
74679;SDS011;63211;48.548;2.704;2022-10-04T17:18:35;1.63;;;0.40;;
74679;SDS011;63211;48.548;2.704;2022-10-04T17:21:11;1.05;;;0.52;;
74679;SDS011;63211;48.548;2.704;2022-10-04T17:23:54;1.45;;;0.57;;
74679;SDS011;63211;48.548;2.704;2022-10-04T17:26:37;2.55;;;0.70;;
74679;SDS011;63211;48.548;2.704;2022-10-04T17:29:22;2.72;;;0.90;;
74679;SDS011;63211;48.548;2.704;2022-10-04T17:32:02;2.15;;;0.70;;
74679;SDS011;63211;48.548;2.704;2022-10-04T17:34:39;2.15;;;0.65;;
74679;SDS011;63211;48.548;2.704;2022-10-04T17:37:19;1.42;;;0.50;;
74679;SDS011;63211;48.548;2.704;2022-10-04T17:39:59;2.42;;;0.77;;
74679;SDS011;63211;48.548;2.704;2022-10-04T17:42:53;2.22;;;0.73;;
74679;SDS011;63211;48.548;2.704;2022-10-04T17:45:33;3.75;;;0.70;;
74679;SDS011;63211;48.548;2.704;2022-10-04T17:48:24;2.35;;;0.80;;
74679;SDS011;63211;48.548;2.704;2022-10-04T17:51:12;1.30;;;0.68;;
74679;SDS011;63211;48.548;2.704;2022-10-04T17:54:12;1.80;;;1.00;;
74679;SDS011;63211;48.548;2.704;2022-10-04T17:57:08;3.00;;;1.00;;
74679;SDS011;63211;48.548;2.704;2022-10-04T17:59:47;3.60;;;0.98;;
74679;SDS011;63211;48.548;2.704;2022-10-04T18:02:19;2.22;;;1.02;;
74679;SDS011;63211;48.548;2.704;2022-10-04T18:04:53;3.45;;;1.00;;
74679;SDS011;63211;48.548;2.704;2022-10-04T18:07:23;3.97;;;1.20;;
74679;SDS011;63211;48.548;2.704;2022-10-04T18:09:53;2.90;;;1.15;;
74679;SDS011;63211;48.548;2.704;2022-10-04T18:12:25;2.35;;;1.08;;
74679;SDS011;63211;48.548;2.704;2022-10-04T18:17:27;3.05;;;1.20;;
74679;SDS011;63211;48.548;2.704;2022-10-04T18:20:00;2.00;;;0.80;;
74679;SDS011;63211;48.548;2.704;2022-10-04T18:22:45;2.22;;;0.88;;
74679;SDS011;63211;48.548;2.704;2022-10-04T18:25:13;2.28;;;1.00;;
74679;SDS011;63211;48.548;2.704;2022-10-04T18:27:50;3.30;;;0.88;;
74679;SDS011;63211;48.548;2.704;2022-10-04T18:30:26;3.00;;;1.02;;